createdAt,value
2024-04-03T00:00:01.480Z,9.08
2024-04-03T00:01:03.224Z,9.06
2024-04-03T00:02:01.656Z,9.04
2024-04-03T00:03:03.384Z,9.02
2024-04-03T00:04:03.465Z,9.03
2024-04-03T00:05:03.598Z,9.02
2024-04-03T00:06:03.734Z,9
2024-04-03T00:07:02.162Z,8.95
2024-04-03T00:08:01.262Z,8.94
2024-04-03T00:09:01.387Z,8.89
2024-04-03T00:10:03.106Z,8.86
2024-04-03T00:11:01.612Z,8.86
2024-04-03T00:12:01.722Z,8.88
2024-04-03T00:13:01.774Z,8.89
2024-04-03T00:14:01.939Z,8.93
2024-04-03T00:15:03.659Z,8.93
2024-04-03T00:16:02.104Z,8.88
2024-04-03T00:17:03.842Z,8.85
2024-04-03T00:18:01.300Z,8.78
2024-04-03T00:19:01.398Z,8.76
2024-04-03T00:20:01.491Z,8.78
2024-04-03T00:21:01.621Z,8.77
2024-04-03T00:22:01.714Z,8.74
2024-04-03T00:23:03.482Z,8.73
2024-04-03T00:24:01.901Z,8.75
2024-04-03T00:25:03.651Z,8.74
2024-04-03T00:26:03.750Z,8.71
2024-04-03T00:27:03.912Z,8.68
2024-04-03T00:28:03.046Z,8.72
2024-04-03T00:29:01.438Z,8.75
2024-04-03T00:30:01.546Z,8.73
2024-04-03T00:31:01.656Z,8.67
2024-04-03T00:32:03.422Z,8.64
2024-04-03T00:33:01.866Z,8.61
2024-04-03T00:34:03.624Z,8.58
2024-04-03T00:35:02.066Z,8.56
2024-04-03T00:36:02.178Z,8.55
2024-04-03T00:37:01.276Z,8.53
2024-04-03T00:38:03.035Z,8.53
2024-04-03T00:39:03.137Z,8.56
2024-04-03T00:40:03.209Z,8.56
2024-04-03T00:41:01.684Z,8.55
2024-04-03T00:42:01.817Z,8.53
2024-04-03T00:43:03.471Z,8.51
2024-04-03T00:44:01.984Z,8.49
2024-04-03T00:45:03.734Z,8.47
2024-04-03T00:46:03.885Z,8.45
2024-04-03T00:47:01.290Z,8.44
2024-04-03T00:48:01.437Z,8.43
2024-04-03T00:49:01.533Z,8.37
2024-04-03T00:50:01.666Z,8.34
2024-04-03T00:51:03.386Z,8.33
2024-04-03T00:52:01.798Z,8.31
2024-04-03T00:53:01.932Z,8.32
2024-04-03T00:54:02.052Z,8.32
2024-04-03T00:55:02.132Z,8.31
2024-04-03T00:56:02.252Z,8.29
2024-04-03T00:57:02.992Z,8.28
2024-04-03T00:58:03.074Z,8.28
2024-04-03T00:59:01.553Z,8.3
2024-04-03T01:00:01.643Z,8.3
2024-04-03T01:01:01.759Z,8.3
2024-04-03T01:02:01.829Z,8.27
2024-04-03T01:03:01.984Z,8.24
2024-04-03T01:04:02.044Z,8.26
2024-04-03T01:05:02.147Z,8.31
2024-04-03T01:06:02.958Z,8.34
2024-04-03T01:07:01.352Z,8.35
2024-04-03T01:08:01.480Z,8.35
2024-04-03T01:09:01.581Z,8.39
2024-04-03T01:10:03.301Z,8.42
2024-04-03T01:11:01.818Z,8.41
2024-04-03T01:12:01.910Z,8.41
2024-04-03T01:13:02.000Z,8.41
2024-04-03T01:14:03.747Z,8.42
2024-04-03T01:15:02.176Z,8.44
2024-04-03T01:16:02.948Z,8.45
2024-04-03T01:17:03.065Z,8.45
2024-04-03T01:18:03.209Z,8.47
2024-04-03T01:19:03.267Z,8.49
2024-04-03T01:20:03.359Z,8.49
2024-04-03T01:21:01.811Z,8.51
2024-04-03T01:22:01.946Z,8.51
2024-04-03T01:23:02.044Z,8.5
2024-04-03T01:24:03.750Z,8.49
2024-04-03T01:25:02.249Z,8.48
2024-04-03T01:26:03.011Z,8.47
2024-04-03T01:27:03.075Z,8.47
2024-04-03T01:28:03.206Z,8.46
2024-04-03T01:29:01.680Z,8.45
2024-04-03T01:30:03.392Z,8.45
2024-04-03T01:31:03.507Z,8.45
2024-04-03T01:32:03.589Z,8.45
2024-04-03T01:33:03.682Z,8.46
2024-04-03T01:34:03.850Z,8.48
2024-04-03T01:36:03.014Z,8.5
2024-04-03T01:37:01.442Z,8.5
2024-04-03T01:38:03.260Z,8.5
2024-04-03T01:39:03.292Z,8.49
2024-04-03T01:40:01.766Z,8.49
2024-04-03T01:41:01.878Z,8.46
2024-04-03T01:42:01.976Z,8.44
2024-04-03T01:43:02.053Z,8.41
2024-04-03T01:44:02.202Z,8.36
2024-04-03T01:45:01.320Z,8.35
2024-04-03T01:46:03.141Z,8.37
2024-04-03T01:47:01.534Z,8.39
2024-04-03T01:48:03.246Z,8.39
2024-04-03T01:49:03.328Z,8.41
2024-04-03T01:50:03.484Z,8.41
2024-04-03T01:51:03.564Z,8.39
2024-04-03T01:52:03.673Z,8.36
2024-04-03T01:53:02.124Z,8.34
2024-04-03T01:54:02.248Z,8.31
2024-04-03T01:55:02.988Z,8.33
2024-04-03T01:56:03.076Z,8.35
2024-04-03T01:57:03.249Z,8.34
2024-04-03T01:58:01.649Z,8.34
2024-04-03T01:59:03.409Z,8.33
2024-04-03T02:00:01.848Z,8.35
2024-04-03T02:01:03.578Z,8.36
2024-04-03T02:02:03.682Z,8.35
2024-04-03T02:03:02.157Z,8.34
2024-04-03T02:04:01.264Z,8.31
2024-04-03T02:05:01.393Z,8.3
2024-04-03T02:06:01.488Z,8.28
2024-04-03T02:07:03.220Z,8.28
2024-04-03T02:08:01.676Z,8.28
2024-04-03T02:09:01.771Z,8.28
2024-04-03T02:10:03.573Z,8.27
2024-04-03T02:11:03.618Z,8.23
2024-04-03T02:12:02.108Z,8.23
2024-04-03T02:13:02.225Z,8.22
2024-04-03T02:14:01.292Z,8.21
2024-04-03T02:15:03.003Z,8.19
2024-04-03T02:16:01.471Z,8.17
2024-04-03T02:17:01.555Z,8.17
2024-04-03T02:18:03.376Z,8.17
2024-04-03T02:19:01.804Z,8.17
2024-04-03T02:20:01.915Z,8.16
2024-04-03T02:21:02.049Z,8.13
2024-04-03T02:22:03.758Z,8.12
2024-04-03T02:23:06.019Z,8.09
2024-04-03T02:24:12.761Z,8.08
2024-04-03T02:25:03.076Z,8.08
2024-04-03T02:26:01.539Z,8.07
2024-04-03T02:27:01.649Z,8.04
2024-04-03T02:28:01.817Z,8.01
2024-04-03T02:29:03.465Z,8.01
2024-04-03T02:30:03.596Z,8
2024-04-03T02:31:02.089Z,7.99
2024-04-03T02:32:02.158Z,7.98
2024-04-03T02:34:02.976Z,7.99
2024-04-03T02:35:01.463Z,7.99
2024-04-03T02:36:01.572Z,8
2024-04-03T02:37:03.322Z,8
2024-04-03T02:38:03.409Z,7.99
2024-04-03T02:39:03.490Z,8.01
2024-04-03T02:40:01.964Z,8.01
2024-04-03T02:41:02.072Z,7.98
2024-04-03T02:42:02.200Z,7.97
2024-04-03T02:43:01.319Z,7.94
2024-04-03T02:44:01.429Z,7.93
2024-04-03T02:45:03.110Z,7.93
2024-04-03T02:46:01.604Z,7.93
2024-04-03T02:47:03.370Z,7.92
2024-04-03T02:48:01.838Z,7.88
2024-04-03T02:49:01.953Z,7.84
2024-04-03T02:50:03.683Z,7.78
2024-04-03T02:51:02.180Z,7.76
2024-04-03T02:52:03.902Z,7.71
2024-04-03T02:53:02.968Z,7.68
2024-04-03T02:54:01.463Z,7.65
2024-04-03T02:55:03.195Z,7.62
2024-04-03T02:56:03.300Z,7.6
2024-04-03T02:57:03.371Z,7.6
2024-04-03T02:58:01.845Z,7.59
2024-04-03T02:59:01.938Z,7.59
2024-04-03T03:00:02.049Z,7.59
2024-04-03T03:01:03.787Z,7.59
2024-04-03T03:02:02.257Z,7.57
2024-04-03T03:03:03.007Z,7.5
2024-04-03T03:04:01.453Z,7.45
2024-04-03T03:05:01.569Z,7.43
2024-04-03T03:06:01.692Z,7.37
2024-04-03T03:07:03.387Z,7.29
2024-04-03T03:08:01.881Z,7.24
2024-04-03T03:09:01.990Z,7.17
2024-04-03T03:10:03.706Z,7.13
2024-04-03T03:11:03.833Z,7.1
2024-04-03T03:12:01.254Z,7.04
2024-04-03T03:13:01.350Z,7
2024-04-03T03:14:01.459Z,6.98
2024-04-03T03:15:03.257Z,6.97
2024-04-03T03:16:01.670Z,6.96
2024-04-03T03:17:01.790Z,6.97
2024-04-03T03:18:01.854Z,6.98
2024-04-03T03:19:02.001Z,7.01
2024-04-03T03:20:02.078Z,7.05
2024-04-03T03:21:03.867Z,7.1
2024-04-03T03:22:01.280Z,7.11
2024-04-03T03:23:03.034Z,7.07
2024-04-03T03:24:03.095Z,7.07
2024-04-03T03:25:01.623Z,7.08
2024-04-03T03:26:01.699Z,7.09
2024-04-03T03:27:01.803Z,7.08
2024-04-03T03:28:01.931Z,7.07
2024-04-03T03:29:03.618Z,7.05
2024-04-03T03:30:03.741Z,7.05
2024-04-03T03:31:02.268Z,7.04
2024-04-03T03:32:03.002Z,7.07
2024-04-03T03:33:01.426Z,7.08
2024-04-03T03:34:01.553Z,7.08
2024-04-03T03:35:03.265Z,7.08
2024-04-03T03:36:03.394Z,7.08
2024-04-03T03:37:03.513Z,7.08
2024-04-03T03:38:01.922Z,7.1
2024-04-03T03:39:03.680Z,7.1
2024-04-03T03:40:03.775Z,7.09
2024-04-03T03:41:02.257Z,7.08
2024-04-03T03:42:02.982Z,7.03
2024-04-03T03:43:01.443Z,7
2024-04-03T03:44:01.560Z,6.97
2024-04-03T03:45:03.234Z,6.95
2024-04-03T03:46:01.733Z,6.95
2024-04-03T03:47:01.867Z,6.91
2024-04-03T03:48:02.001Z,6.88
2024-04-03T03:49:02.056Z,6.88
2024-04-03T03:50:03.846Z,6.9
2024-04-03T03:51:02.907Z,6.93
2024-04-03T03:52:03.049Z,6.94
2024-04-03T03:53:03.099Z,6.94
2024-04-03T03:54:03.213Z,6.94
2024-04-03T03:55:01.728Z,6.93
2024-04-03T03:56:01.792Z,6.91
2024-04-03T03:57:03.511Z,6.89
2024-04-03T03:58:01.998Z,6.88
2024-04-03T03:59:02.082Z,6.87
2024-04-03T04:00:03.833Z,6.84
2024-04-03T04:01:02.944Z,6.85
2024-04-03T04:02:01.422Z,6.84
2024-04-03T04:03:01.550Z,6.8
2024-04-03T04:04:01.625Z,6.78
2024-04-03T04:05:03.351Z,6.74
2024-04-03T04:06:03.500Z,6.7
2024-04-03T04:07:03.574Z,6.7
2024-04-03T04:08:02.046Z,6.71
2024-04-03T04:09:03.771Z,6.68
2024-04-03T04:10:03.826Z,6.67
2024-04-03T04:11:01.326Z,6.63
2024-04-03T04:12:03.101Z,6.6
2024-04-03T04:13:01.504Z,6.59
2024-04-03T04:14:01.605Z,6.63
2024-04-03T04:15:01.774Z,6.64
2024-04-03T04:16:03.491Z,6.63
2024-04-03T04:17:01.936Z,6.59
2024-04-03T04:18:02.058Z,6.54
2024-04-03T04:19:02.160Z,6.5
2024-04-03T04:21:03.001Z,6.4
2024-04-03T04:22:03.105Z,6.35
2024-04-03T04:23:01.572Z,6.31
2024-04-03T04:24:03.293Z,6.25
2024-04-03T04:25:01.774Z,6.2
2024-04-03T04:26:03.480Z,6.16
2024-04-03T04:27:01.976Z,6.11
2024-04-03T04:28:03.732Z,6.08
2024-04-03T04:29:03.818Z,6.06
2024-04-03T04:30:01.264Z,6.04
2024-04-03T04:31:03.014Z,6.01
2024-04-03T04:32:01.493Z,5.98
2024-04-03T04:33:01.578Z,5.96
2024-04-03T04:34:03.359Z,5.93
2024-04-03T04:35:04.206Z,5.9
2024-04-03T04:36:01.871Z,5.87
2024-04-03T04:37:02.052Z,5.86
2024-04-03T04:38:02.078Z,5.84
2024-04-03T04:39:03.836Z,5.82
2024-04-03T04:40:01.286Z,5.78
2024-04-03T04:41:03.082Z,5.72
2024-04-03T04:42:01.503Z,5.67
2024-04-03T04:43:01.599Z,5.63
2024-04-03T04:44:01.685Z,5.59
2024-04-03T04:45:03.485Z,5.56
2024-04-03T04:46:03.655Z,5.53
2024-04-03T04:47:03.683Z,5.51
2024-04-03T04:48:03.807Z,5.48
2024-04-03T04:50:01.352Z,5.42
2024-04-03T04:51:01.479Z,5.41
2024-04-03T04:52:03.235Z,5.38
2024-04-03T04:53:03.332Z,5.36
2024-04-03T04:54:03.402Z,5.34
2024-04-03T04:55:03.545Z,5.32
2024-04-03T04:56:01.989Z,5.28
2024-04-03T04:57:03.716Z,5.28
2024-04-03T04:58:02.172Z,5.28
2024-04-03T04:59:01.259Z,5.26
2024-04-03T05:00:03.018Z,5.24
2024-04-03T05:01:01.490Z,5.24
2024-04-03T05:02:01.613Z,5.22
2024-04-03T05:03:01.671Z,5.22
2024-04-03T05:04:03.414Z,5.22
2024-04-03T05:05:01.875Z,5.23
2024-04-03T05:06:03.638Z,5.25
2024-04-03T05:07:03.799Z,5.28
2024-04-03T05:08:02.204Z,5.28
2024-04-03T05:09:02.956Z,5.28
2024-04-03T05:10:03.074Z,5.28
2024-04-03T05:11:03.209Z,5.32
2024-04-03T05:12:01.641Z,5.33
2024-04-03T05:13:01.908Z,5.35
2024-04-03T05:14:01.836Z,5.36
2024-04-03T05:15:01.942Z,5.38
2024-04-03T05:16:02.039Z,5.39
2024-04-03T05:17:02.140Z,5.41
2024-04-03T05:18:02.263Z,5.45
2024-04-03T05:19:01.411Z,5.46
2024-04-03T05:20:01.453Z,5.48
2024-04-03T05:21:03.208Z,5.49
2024-04-03T05:22:03.326Z,5.5
2024-04-03T05:23:01.824Z,5.51
2024-04-03T05:24:01.905Z,5.51
2024-04-03T05:25:01.969Z,5.51
2024-04-03T05:26:03.734Z,5.51
2024-04-03T05:27:03.810Z,5.52
2024-04-03T05:28:01.304Z,5.53
2024-04-03T05:29:01.427Z,5.55
2024-04-03T05:30:01.543Z,5.6
2024-04-03T05:31:03.236Z,5.63
2024-04-03T05:32:03.342Z,5.65
2024-04-03T05:33:03.460Z,5.69
2024-04-03T05:34:03.543Z,5.76
2024-04-03T05:35:03.696Z,5.78
2024-04-03T05:36:02.118Z,5.81
2024-04-03T05:37:03.899Z,5.82
2024-04-03T05:38:01.325Z,5.84
2024-04-03T05:39:01.411Z,5.85
2024-04-03T05:40:01.608Z,5.87
2024-04-03T05:41:06.537Z,5.87
2024-04-03T05:42:03.358Z,5.91
2024-04-03T05:43:03.484Z,5.92
2024-04-03T05:44:03.590Z,5.95
2024-04-03T05:45:02.084Z,5.96
2024-04-03T05:46:03.920Z,6
2024-04-03T05:47:01.315Z,6.05
2024-04-03T05:48:03.027Z,6.1
2024-04-03T05:49:03.158Z,6.16
2024-04-03T05:50:01.587Z,6.21
2024-04-03T05:51:01.681Z,6.3
2024-04-03T05:52:03.456Z,6.39
2024-04-03T05:53:01.923Z,6.46
2024-04-03T05:54:01.980Z,6.56
2024-04-03T05:55:02.131Z,6.66
2024-04-03T05:56:03.858Z,6.73
2024-04-03T05:57:01.308Z,6.83
2024-04-03T05:58:01.442Z,6.94
2024-04-03T05:59:01.527Z,7.05
2024-04-03T06:00:01.633Z,7.15
2024-04-03T06:01:01.765Z,7.25
2024-04-03T06:02:01.815Z,7.34
2024-04-03T06:03:01.908Z,7.43
2024-04-03T06:04:02.007Z,7.54
2024-04-03T06:05:02.183Z,7.59
2024-04-03T06:06:02.268Z,7.65
2024-04-03T06:07:02.957Z,7.71
2024-04-03T06:08:03.090Z,7.76
2024-04-03T06:09:03.178Z,7.83
2024-04-03T06:10:01.627Z,7.88
2024-04-03T06:11:01.783Z,7.92
2024-04-03T06:12:03.499Z,7.97
2024-04-03T06:13:01.937Z,8.02
2024-04-03T06:14:03.703Z,8.08
2024-04-03T06:15:03.791Z,8.15
2024-04-03T06:16:02.296Z,8.21
2024-04-03T06:17:02.987Z,8.29
2024-04-03T06:18:01.514Z,8.33
2024-04-03T06:19:03.207Z,8.39
2024-04-03T06:20:01.675Z,8.45
2024-04-03T06:21:03.432Z,8.5
2024-04-03T06:22:01.880Z,8.56
2024-04-03T06:23:03.619Z,8.61
2024-04-03T06:24:02.065Z,8.64
2024-04-03T06:25:02.195Z,8.67
2024-04-03T06:26:02.940Z,8.7
2024-04-03T06:27:03.014Z,8.74
2024-04-03T06:28:03.149Z,8.77
2024-04-03T06:29:01.597Z,8.8
2024-04-03T06:30:01.748Z,8.83
2024-04-03T06:31:01.848Z,8.89
2024-04-03T06:32:01.923Z,8.94
2024-04-03T06:33:03.667Z,8.95
2024-04-03T06:34:03.749Z,8.96
2024-04-03T06:35:02.244Z,9.04
2024-04-03T06:36:01.331Z,9.06
2024-04-03T06:37:03.082Z,9.1
2024-04-03T06:38:01.539Z,9.16
2024-04-03T06:39:01.637Z,9.18
2024-04-03T06:40:01.779Z,9.22
2024-04-03T06:41:03.466Z,9.29
2024-04-03T06:42:01.983Z,9.31
2024-04-03T06:43:03.700Z,9.36
2024-04-03T06:44:03.836Z,9.39
2024-04-03T06:45:03.003Z,9.44
2024-04-03T06:46:01.374Z,9.48
2024-04-03T06:47:01.496Z,9.53
2024-04-03T06:48:01.727Z,9.57
2024-04-03T06:49:01.696Z,9.62
2024-04-03T06:50:03.425Z,9.65
2024-04-03T06:51:03.524Z,9.69
2024-04-03T06:52:01.997Z,9.72
2024-04-03T06:53:03.744Z,9.76
2024-04-03T06:54:02.222Z,9.8
2024-04-03T06:55:01.297Z,9.82
2024-04-03T06:56:01.429Z,9.86
2024-04-03T06:57:01.518Z,9.9
2024-04-03T06:58:05.023Z,9.91
2024-04-03T06:59:03.400Z,9.95
2024-04-03T07:00:03.448Z,9.98
2024-04-03T07:01:01.932Z,10
2024-04-03T07:02:02.036Z,10.03
2024-04-03T07:03:03.775Z,10.03
2024-04-03T07:04:02.209Z,10.03
2024-04-03T07:05:01.350Z,10.04
2024-04-03T07:06:03.066Z,10.06
2024-04-03T07:07:03.189Z,10.08
2024-04-03T07:08:01.641Z,10.08
2024-04-03T07:09:01.732Z,10.07
2024-04-03T07:10:01.867Z,10.07
2024-04-03T07:11:03.586Z,10.07
2024-04-03T07:12:03.754Z,10.07
2024-04-03T07:13:02.153Z,10.08
2024-04-03T07:14:02.904Z,10.09
2024-04-03T07:15:01.365Z,10.1
2024-04-03T07:16:03.062Z,10.12
2024-04-03T07:17:01.546Z,10.11
2024-04-03T07:18:03.362Z,10.09
2024-04-03T07:19:03.383Z,10.1
2024-04-03T07:20:03.539Z,10.09
2024-04-03T07:21:01.989Z,10.09
2024-04-03T07:22:03.707Z,10.08
2024-04-03T07:23:03.804Z,10.07
2024-04-03T07:24:01.285Z,10.06
2024-04-03T07:25:03.041Z,10.07
2024-04-03T07:26:01.495Z,10.08
2024-04-03T07:27:01.599Z,10.07
2024-04-03T07:28:01.738Z,10.07
2024-04-03T07:29:01.802Z,10.06
2024-04-03T07:30:03.541Z,10.05
2024-04-03T07:31:03.718Z,10.05
2024-04-03T07:32:02.155Z,10.04
2024-04-03T07:33:02.215Z,10.03
2024-04-03T07:34:02.981Z,10.03
2024-04-03T07:35:01.437Z,10.03
2024-04-03T07:36:01.520Z,10.04
2024-04-03T07:37:01.594Z,10.03
2024-04-03T07:38:03.386Z,10.04
2024-04-03T07:39:01.820Z,10.04
2024-04-03T07:40:03.521Z,10.04
2024-04-03T07:41:02.040Z,10.04
2024-04-03T07:42:02.143Z,10.04
2024-04-03T07:43:01.266Z,10.05
2024-04-03T07:44:02.999Z,10.05
2024-04-03T07:45:03.134Z,10.07
2024-04-03T07:46:03.316Z,10.07
2024-04-03T07:47:01.682Z,10.08
2024-04-03T07:48:01.806Z,10.1
2024-04-03T07:49:03.511Z,10.11
2024-04-03T07:50:03.610Z,10.12
2024-04-03T07:51:02.120Z,10.13
2024-04-03T07:52:02.192Z,10.15
2024-04-03T07:53:01.305Z,10.18
2024-04-03T07:54:01.439Z,10.21
2024-04-03T07:55:03.134Z,10.23
2024-04-03T07:56:01.601Z,10.25
2024-04-03T07:57:03.380Z,10.28
2024-04-03T07:58:03.454Z,10.33
2024-04-03T07:59:01.921Z,10.34
2024-04-03T08:00:02.081Z,10.37
2024-04-03T08:01:02.133Z,10.41
2024-04-03T08:02:03.914Z,10.44
2024-04-03T08:03:03.667Z,10.48
2024-04-03T08:04:03.070Z,10.52
2024-04-03T08:05:01.515Z,10.56
2024-04-03T08:06:01.648Z,10.64
2024-04-03T08:07:01.734Z,10.72
2024-04-03T08:08:01.859Z,10.79
2024-04-03T08:09:01.934Z,10.83
2024-04-03T08:10:03.685Z,10.88
2024-04-03T08:11:02.153Z,10.95
2024-04-03T08:13:01.375Z,11.08
2024-04-03T08:14:01.486Z,11.13
2024-04-03T08:15:01.561Z,11.17
2024-04-03T08:16:01.684Z,11.18
2024-04-03T08:17:01.755Z,11.2
2024-04-03T08:18:01.901Z,11.2
2024-04-03T08:19:01.955Z,11.22
2024-04-03T08:20:02.104Z,11.23
2024-04-03T08:21:02.206Z,11.23
2024-04-03T08:22:01.299Z,11.25
2024-04-03T08:23:03.031Z,11.27
2024-04-03T08:24:01.528Z,11.29
2024-04-03T08:25:01.611Z,11.3
2024-04-03T08:26:01.725Z,11.31
2024-04-03T08:27:03.473Z,11.32
2024-04-03T08:28:04.556Z,11.3
2024-04-03T08:29:02.033Z,11.29
2024-04-03T08:30:02.201Z,11.28
2024-04-03T08:31:03.882Z,11.28
2024-04-03T08:32:01.322Z,11.28
2024-04-03T08:33:01.475Z,11.27
2024-04-03T08:34:09.465Z,11.26
2024-04-03T08:35:01.648Z,11.26
2024-04-03T08:36:03.430Z,11.25
2024-04-03T08:37:01.846Z,11.26
2024-04-03T08:38:03.138Z,11.27
2024-04-03T08:39:02.042Z,11.27
2024-04-03T08:40:03.798Z,11.27
2024-04-03T08:41:01.250Z,11.29
2024-04-03T08:42:01.345Z,11.28
2024-04-03T08:43:01.474Z,11.28
2024-04-03T08:44:03.198Z,11.28
2024-04-03T08:45:03.348Z,11.28
2024-04-03T08:46:03.527Z,11.31
2024-04-03T08:47:03.554Z,11.31
2024-04-03T08:48:02.041Z,11.32
2024-04-03T08:49:03.735Z,11.34
2024-04-03T08:50:02.216Z,11.38
2024-04-03T08:51:01.354Z,11.39
2024-04-03T08:52:03.072Z,11.41
2024-04-03T08:53:03.161Z,11.45
2024-04-03T08:54:03.259Z,11.46
2024-04-03T08:55:03.424Z,11.51
2024-04-03T08:56:01.866Z,11.54
2024-04-03T08:57:01.931Z,11.58
2024-04-03T08:58:03.675Z,11.61
2024-04-03T08:59:03.788Z,11.63
2024-04-03T09:00:01.268Z,11.66
2024-04-03T09:01:01.493Z,11.69
2024-04-03T09:02:03.113Z,11.7
2024-04-03T09:03:01.646Z,11.74
2024-04-03T09:04:03.518Z,11.81
2024-04-03T09:05:01.771Z,11.86
2024-04-03T09:06:03.555Z,11.89
2024-04-03T09:07:02.021Z,11.93
2024-04-03T09:08:09.824Z,11.99
2024-04-03T09:09:03.853Z,12.07
2024-04-03T09:10:02.951Z,12.17
2024-04-03T09:11:01.409Z,12.21
2024-04-03T09:12:01.535Z,12.25
2024-04-03T09:13:01.639Z,12.3
2024-04-03T09:14:03.313Z,12.32
2024-04-03T09:15:01.802Z,12.34
2024-04-03T09:16:01.930Z,12.33
2024-04-03T09:17:03.340Z,12.33
2024-04-03T09:18:02.120Z,12.33
2024-04-03T09:19:03.961Z,12.34
2024-04-03T09:20:01.371Z,12.35
2024-04-03T09:21:03.095Z,12.36
2024-04-03T09:22:01.557Z,12.38
2024-04-03T09:23:03.249Z,12.43
2024-04-03T09:24:03.379Z,12.45
2024-04-03T09:25:01.825Z,12.48
2024-04-03T09:26:03.600Z,12.51
2024-04-03T09:27:02.062Z,12.56
2024-04-03T09:28:02.167Z,12.59
2024-04-03T09:29:01.260Z,12.58
2024-04-03T09:30:01.351Z,12.51
2024-04-03T09:31:03.116Z,12.47
2024-04-03T09:32:01.609Z,12.48
2024-04-03T09:33:01.684Z,12.49
2024-04-03T09:34:03.413Z,12.52
2024-04-03T09:35:03.546Z,12.55
2024-04-03T09:36:01.979Z,12.55
2024-04-03T09:37:02.082Z,12.55
2024-04-03T09:38:02.198Z,12.55
2024-04-03T09:39:02.921Z,12.51
2024-04-03T09:40:03.031Z,12.49
2024-04-03T09:41:01.525Z,12.5
2024-04-03T09:42:01.621Z,12.51
2024-04-03T09:43:01.679Z,12.51
2024-04-03T09:44:02.950Z,12.5
2024-04-03T09:45:01.958Z,12.5
2024-04-03T09:46:03.860Z,12.52
2024-04-03T09:47:02.198Z,12.53
2024-04-03T09:48:02.280Z,12.53
2024-04-03T09:49:02.985Z,12.53
2024-04-03T09:50:01.469Z,12.53
2024-04-03T09:51:01.563Z,12.53
2024-04-03T09:52:01.714Z,12.53
2024-04-03T09:53:01.761Z,12.52
2024-04-03T09:54:01.891Z,12.52
2024-04-03T09:55:03.627Z,12.48
2024-04-03T09:56:02.089Z,12.46
2024-04-03T09:57:02.197Z,12.43
2024-04-03T09:58:01.310Z,12.41
2024-04-03T09:59:01.376Z,12.38
2024-04-03T10:00:01.460Z,12.34
2024-04-03T10:01:01.601Z,12.31
2024-04-03T10:02:01.712Z,12.3
2024-04-03T10:03:03.396Z,12.29
2024-04-03T10:04:01.876Z,12.26
2024-04-03T10:05:03.650Z,12.26
2024-04-03T10:06:02.110Z,12.27
2024-04-03T10:07:03.924Z,12.25
2024-04-03T10:08:02.896Z,12.25
2024-04-03T10:09:01.427Z,12.25
2024-04-03T10:10:01.511Z,12.25
2024-04-03T10:11:01.627Z,12.25
2024-04-03T10:12:01.755Z,12.27
2024-04-03T10:13:01.884Z,12.27
2024-04-03T10:14:01.955Z,12.28
2024-04-03T10:15:02.100Z,12.31
2024-04-03T10:16:03.890Z,12.34
2024-04-03T10:18:02.998Z,12.38
2024-04-03T10:19:01.486Z,12.38
2024-04-03T10:20:01.597Z,12.4
2024-04-03T10:21:01.689Z,12.41
2024-04-03T10:22:01.779Z,12.4
2024-04-03T10:23:01.893Z,12.38
2024-04-03T10:24:02.025Z,12.38
2024-04-03T10:25:03.729Z,12.4
2024-04-03T10:26:02.195Z,12.42
2024-04-03T10:27:01.279Z,12.46
2024-04-03T10:28:03.013Z,12.49
2024-04-03T10:29:03.401Z,12.49
2024-04-03T10:30:01.580Z,12.51
2024-04-03T10:31:03.616Z,12.53
2024-04-03T10:32:03.447Z,12.52
2024-04-03T10:33:03.639Z,12.55
2024-04-03T10:34:03.639Z,12.53
2024-04-03T10:35:02.164Z,12.53
2024-04-03T10:36:02.211Z,12.55
2024-04-03T10:37:01.280Z,12.56
2024-04-03T10:38:01.403Z,12.58
2024-04-03T10:39:01.519Z,12.59
2024-04-03T10:40:01.694Z,12.6
2024-04-03T10:41:01.703Z,12.62
2024-04-03T10:42:03.445Z,12.6
2024-04-03T10:43:03.592Z,12.6
2024-04-03T10:44:03.684Z,12.6
2024-04-03T10:45:02.184Z,12.6
2024-04-03T10:46:03.931Z,12.6
2024-04-03T10:47:03.016Z,12.6
2024-04-03T10:48:03.069Z,12.6
2024-04-03T10:49:03.168Z,12.59
2024-04-03T10:50:03.291Z,12.6
2024-04-03T10:51:01.781Z,12.62
2024-04-03T10:52:01.860Z,12.63
2024-04-03T10:53:01.950Z,12.65
2024-04-03T10:54:02.123Z,12.66
2024-04-03T10:55:03.804Z,12.64
2024-04-03T10:56:02.895Z,12.64
2024-04-03T10:57:01.415Z,12.67
2024-04-03T10:58:03.106Z,12.72
2024-04-03T10:59:01.583Z,12.73
2024-04-03T11:00:03.312Z,12.72
2024-04-03T11:01:03.454Z,12.69
2024-04-03T11:02:01.919Z,12.71
2024-04-03T11:03:01.971Z,12.7
2024-04-03T11:04:03.727Z,12.73
2024-04-03T11:05:03.846Z,12.71
2024-04-03T11:06:01.320Z,12.71
2024-04-03T11:07:03.039Z,12.71
2024-04-03T11:08:03.121Z,12.72
2024-04-03T11:09:01.653Z,12.74
2024-04-03T11:10:03.357Z,12.76
2024-04-03T11:11:01.804Z,12.81
2024-04-03T11:12:03.588Z,12.82
2024-04-03T11:13:02.013Z,12.84
2024-04-03T11:14:03.783Z,12.88
2024-04-03T11:15:02.213Z,12.88
2024-04-03T11:16:02.952Z,12.88
2024-04-03T11:17:03.070Z,12.9
2024-04-03T11:18:01.533Z,12.9
2024-04-03T11:19:03.282Z,12.88
2024-04-03T11:20:01.779Z,12.85
2024-04-03T11:21:01.845Z,12.8
2024-04-03T11:22:01.933Z,12.82
2024-04-03T11:23:03.679Z,12.9
2024-04-03T11:24:02.221Z,12.95
2024-04-03T11:25:02.946Z,12.97
2024-04-03T11:26:01.356Z,12.97
2024-04-03T11:27:01.492Z,13
2024-04-03T11:28:01.599Z,13.01
2024-04-03T11:29:01.690Z,13
2024-04-03T11:30:01.819Z,13.04
2024-04-03T11:31:03.533Z,13.05
2024-04-03T11:32:02.070Z,13.1
2024-04-03T11:33:02.158Z,13.1
2024-04-03T11:34:02.185Z,13.11
2024-04-03T11:35:01.299Z,13.1
2024-04-03T11:36:01.435Z,13.14
2024-04-03T11:37:01.544Z,13.11
2024-04-03T11:38:01.662Z,13.1
2024-04-03T11:39:01.781Z,13.15
2024-04-03T11:40:01.945Z,13.15
2024-04-03T11:41:03.532Z,13.12
2024-04-03T11:42:03.699Z,13.11
2024-04-03T11:43:03.810Z,13.09
2024-04-03T11:44:01.287Z,13.08
2024-04-03T11:45:01.349Z,13.05
2024-04-03T11:46:10.328Z,13
2024-04-03T11:47:01.561Z,12.96
2024-04-03T11:48:03.290Z,12.93
2024-04-03T11:49:01.774Z,12.87
2024-04-03T11:50:01.943Z,12.85
2024-04-03T11:51:02.014Z,12.79
2024-04-03T11:52:03.742Z,12.77
2024-04-03T11:53:02.231Z,12.76
2024-04-03T11:54:01.499Z,12.78
2024-04-03T11:55:03.118Z,12.78
2024-04-03T11:56:01.576Z,12.81
2024-04-03T11:57:03.302Z,12.82
2024-04-03T11:58:01.778Z,12.84
2024-04-03T11:59:03.522Z,12.86
2024-04-03T12:00:01.960Z,12.89
2024-04-03T12:01:02.083Z,12.94
2024-04-03T12:02:03.819Z,13.01
2024-04-03T12:03:02.879Z,13.06
2024-04-03T12:04:01.357Z,13.1
2024-04-03T12:05:01.453Z,13.12
2024-04-03T12:06:03.271Z,13.12
2024-04-03T12:07:01.694Z,13.18
2024-04-03T12:08:03.433Z,13.24
2024-04-03T12:09:01.936Z,13.32
2024-04-03T12:10:03.622Z,13.38
2024-04-03T12:11:02.103Z,13.43
2024-04-03T12:12:02.217Z,13.43
2024-04-03T12:13:01.291Z,13.4
2024-04-03T12:14:03.062Z,13.38
2024-04-03T12:15:01.469Z,13.37
2024-04-03T12:16:01.615Z,13.43
2024-04-03T12:17:03.332Z,13.46
2024-04-03T12:18:01.807Z,13.5
2024-04-03T12:19:03.577Z,13.51
2024-04-03T12:20:02.023Z,13.5
2024-04-03T12:21:02.124Z,13.49
2024-04-03T12:22:03.937Z,13.48
2024-04-03T12:23:01.458Z,13.46
2024-04-03T12:24:01.506Z,13.4
2024-04-03T12:25:01.623Z,13.41
2024-04-03T12:26:01.667Z,13.45
2024-04-03T12:27:01.928Z,13.51
2024-04-03T12:28:01.990Z,13.56
2024-04-03T12:29:02.069Z,13.63
2024-04-03T12:30:03.718Z,13.65
2024-04-03T12:31:02.229Z,13.66
2024-04-03T12:32:02.893Z,13.66
2024-04-03T12:33:01.369Z,13.64
2024-04-03T12:34:03.113Z,13.6
2024-04-03T12:35:03.218Z,13.6
2024-04-03T12:36:01.659Z,13.6
2024-04-03T12:37:09.082Z,13.56
2024-04-03T12:38:20.739Z,13.54
2024-04-03T12:39:01.959Z,13.5
2024-04-03T12:40:03.684Z,13.5
2024-04-03T12:41:02.219Z,13.47
2024-04-03T12:42:01.301Z,13.45
2024-04-03T12:43:03.092Z,13.46
2024-04-03T12:44:03.160Z,13.46
2024-04-03T12:45:01.654Z,13.46
2024-04-03T12:46:03.479Z,13.49
2024-04-03T12:47:01.847Z,13.49
2024-04-03T12:48:01.947Z,13.48
2024-04-03T12:49:03.667Z,13.48
2024-04-03T12:50:02.181Z,13.46
2024-04-03T12:51:03.877Z,13.45
2024-04-03T12:52:03.032Z,13.45
2024-04-03T12:53:01.469Z,13.46
2024-04-03T12:54:01.545Z,13.5
2024-04-03T12:55:03.322Z,13.48
2024-04-03T12:56:03.420Z,13.47
2024-04-03T12:57:03.512Z,13.47
2024-04-03T12:58:01.978Z,13.48
2024-04-03T12:59:03.721Z,13.46
2024-04-03T13:00:02.159Z,13.48
2024-04-03T13:01:01.271Z,13.5
2024-04-03T13:02:01.361Z,13.53
2024-04-03T13:03:03.118Z,13.51
2024-04-03T13:04:01.601Z,13.5
2024-04-03T13:05:03.339Z,13.5
2024-04-03T13:06:03.423Z,13.54
2024-04-03T13:07:03.513Z,13.61
2024-04-03T13:08:03.654Z,13.63
2024-04-03T13:09:03.740Z,13.65
2024-04-03T13:10:02.210Z,13.63
2024-04-03T13:11:02.897Z,13.61
2024-04-03T13:12:01.407Z,13.61
2024-04-03T13:13:01.499Z,13.6
2024-04-03T13:14:01.581Z,13.6
2024-04-03T13:15:01.761Z,13.61